sensor_id;sensor_type;location;lat;lon;timestamp;pressure;altitude;pressure_sealevel;temperature;humidity
63552;BME280;49698;48.072;7.800;2023-03-21T00:01:28;99673.66;;;7.01;81.02
63552;BME280;49698;48.072;7.800;2023-03-21T00:03:56;99681.09;;;6.99;81.43
63552;BME280;49698;48.072;7.800;2023-03-21T00:06:24;99672.00;;;7.00;81.33
63552;BME280;49698;48.072;7.800;2023-03-21T00:08:52;99674.38;;;6.97;81.28
63552;BME280;49698;48.072;7.800;2023-03-21T00:11:21;99677.56;;;6.94;81.49
63552;BME280;49698;48.072;7.800;2023-03-21T00:13:49;99687.69;;;6.92;81.02
63552;BME280;49698;48.072;7.800;2023-03-21T00:16:19;99687.47;;;6.93;81.53
63552;BME280;49698;48.072;7.800;2023-03-21T00:18:49;99687.16;;;6.90;81.14
63552;BME280;49698;48.072;7.800;2023-03-21T00:21:20;99683.66;;;6.89;81.15
63552;BME280;49698;48.072;7.800;2023-03-21T00:24:14;99676.16;;;6.86;81.22
63552;BME280;49698;48.072;7.800;2023-03-21T00:26:42;99689.22;;;6.82;81.41
63552;BME280;49698;48.072;7.800;2023-03-21T00:29:10;99691.59;;;6.79;81.28
63552;BME280;49698;48.072;7.800;2023-03-21T00:31:38;99683.53;;;6.74;81.48
63552;BME280;49698;48.072;7.800;2023-03-21T00:34:07;99686.41;;;6.72;81.45
63552;BME280;49698;48.072;7.800;2023-03-21T00:36:36;99681.88;;;6.73;81.39
63552;BME280;49698;48.072;7.800;2023-03-21T00:39:05;99676.22;;;6.69;81.34
63552;BME280;49698;48.072;7.800;2023-03-21T00:41:33;99670.56;;;6.66;81.61
63552;BME280;49698;48.072;7.800;2023-03-21T00:44:09;99668.44;;;6.63;81.67
63552;BME280;49698;48.072;7.800;2023-03-21T00:46:39;99667.31;;;6.58;81.77
63552;BME280;49698;48.072;7.800;2023-03-21T00:49:21;99668.56;;;6.51;82.05
63552;BME280;49698;48.072;7.800;2023-03-21T00:51:49;99667.13;;;6.43;81.82
63552;BME280;49698;48.072;7.800;2023-03-21T00:54:18;99664.16;;;6.40;82.39
63552;BME280;49698;48.072;7.800;2023-03-21T00:56:46;99659.31;;;6.36;82.41
63552;BME280;49698;48.072;7.800;2023-03-21T00:59:15;99659.03;;;6.38;82.21
63552;BME280;49698;48.072;7.800;2023-03-21T01:01:43;99656.63;;;6.36;82.35
63552;BME280;49698;48.072;7.800;2023-03-21T01:04:13;99658.72;;;6.34;82.15
63552;BME280;49698;48.072;7.800;2023-03-21T01:06:43;99654.22;;;6.35;81.71
63552;BME280;49698;48.072;7.800;2023-03-21T01:09:13;99661.09;;;6.31;81.97
63552;BME280;49698;48.072;7.800;2023-03-21T01:11:42;99652.28;;;6.30;82.31
63552;BME280;49698;48.072;7.800;2023-03-21T01:14:11;99652.53;;;6.29;81.97
63552;BME280;49698;48.072;7.800;2023-03-21T01:16:49;99657.31;;;6.27;81.95
63552;BME280;49698;48.072;7.800;2023-03-21T01:19:18;99651.41;;;6.25;82.00
63552;BME280;49698;48.072;7.800;2023-03-21T01:21:54;99650.03;;;6.22;82.18
63552;BME280;49698;48.072;7.800;2023-03-21T01:24:23;99642.78;;;6.18;81.95
63552;BME280;49698;48.072;7.800;2023-03-21T01:26:51;99648.38;;;6.16;82.25
63552;BME280;49698;48.072;7.800;2023-03-21T01:29:19;99650.00;;;6.17;82.31
63552;BME280;49698;48.072;7.800;2023-03-21T01:31:48;99641.97;;;6.17;82.03
63552;BME280;49698;48.072;7.800;2023-03-21T01:34:16;99640.06;;;6.12;81.81
63552;BME280;49698;48.072;7.800;2023-03-21T01:36:44;99641.03;;;6.06;82.30
63552;BME280;49698;48.072;7.800;2023-03-21T01:39:17;99639.91;;;6.02;82.12
63552;BME280;49698;48.072;7.800;2023-03-21T01:41:47;99632.97;;;6.01;82.41
63552;BME280;49698;48.072;7.800;2023-03-21T01:44:24;99634.09;;;6.05;81.91
63552;BME280;49698;48.072;7.800;2023-03-21T01:46:53;99628.75;;;6.05;82.21
63552;BME280;49698;48.072;7.800;2023-03-21T01:49:45;99626.56;;;6.02;82.09
63552;BME280;49698;48.072;7.800;2023-03-21T01:52:23;99624.41;;;5.99;81.96
63552;BME280;49698;48.072;7.800;2023-03-21T01:55:07;99626.25;;;5.99;82.31
63552;BME280;49698;48.072;7.800;2023-03-21T01:57:44;99620.38;;;5.97;82.19
63552;BME280;49698;48.072;7.800;2023-03-21T02:00:31;99622.47;;;5.95;81.69
63552;BME280;49698;48.072;7.800;2023-03-21T02:03:14;99622.13;;;5.91;82.25
63552;BME280;49698;48.072;7.800;2023-03-21T02:06:07;99617.28;;;5.88;82.12
63552;BME280;49698;48.072;7.800;2023-03-21T02:08:39;99623.94;;;5.85;82.24
63552;BME280;49698;48.072;7.800;2023-03-21T02:11:13;99617.22;;;5.83;82.36
63552;BME280;49698;48.072;7.800;2023-03-21T02:13:42;99612.94;;;5.82;82.18
63552;BME280;49698;48.072;7.800;2023-03-21T02:16:17;99611.63;;;5.84;82.41
63552;BME280;49698;48.072;7.800;2023-03-21T02:18:55;99613.00;;;5.87;82.17
63552;BME280;49698;48.072;7.800;2023-03-21T02:21:59;99610.34;;;5.87;81.96
63552;BME280;49698;48.072;7.800;2023-03-21T02:27:52;99606.50;;;5.78;81.86
63552;BME280;49698;48.072;7.800;2023-03-21T02:30:44;99604.25;;;5.70;82.17
63552;BME280;49698;48.072;7.800;2023-03-21T02:33:40;99608.44;;;5.66;82.24
63552;BME280;49698;48.072;7.800;2023-03-21T02:36:24;99601.75;;;5.63;82.38
63552;BME280;49698;48.072;7.800;2023-03-21T02:39:00;99603.13;;;5.66;82.22
63552;BME280;49698;48.072;7.800;2023-03-21T02:41:41;99603.34;;;5.64;81.86
63552;BME280;49698;48.072;7.800;2023-03-21T02:44:18;99600.94;;;5.62;81.91
63552;BME280;49698;48.072;7.800;2023-03-21T02:46:50;99599.25;;;5.56;81.70
63552;BME280;49698;48.072;7.800;2023-03-21T02:49:36;99590.38;;;5.51;82.17
63552;BME280;49698;48.072;7.800;2023-03-21T02:52:13;99593.25;;;5.49;81.90
63552;BME280;49698;48.072;7.800;2023-03-21T02:54:56;99592.13;;;5.45;82.20
63552;BME280;49698;48.072;7.800;2023-03-21T02:57:32;99595.31;;;5.42;82.03
63552;BME280;49698;48.072;7.800;2023-03-21T03:00:12;99587.81;;;5.39;82.30
63552;BME280;49698;48.072;7.800;2023-03-21T03:02:45;99589.41;;;5.40;82.42
63552;BME280;49698;48.072;7.800;2023-03-21T03:05:23;99587.88;;;5.44;82.00
63552;BME280;49698;48.072;7.800;2023-03-21T03:08:00;99582.78;;;5.43;81.82
63552;BME280;49698;48.072;7.800;2023-03-21T03:10:49;99582.22;;;5.40;82.00
63552;BME280;49698;48.072;7.800;2023-03-21T03:13:33;99577.13;;;5.39;82.02
63552;BME280;49698;48.072;7.800;2023-03-21T03:16:12;99566.16;;;5.35;81.82
63552;BME280;49698;48.072;7.800;2023-03-21T03:18:48;99574.38;;;5.34;82.10
63552;BME280;49698;48.072;7.800;2023-03-21T03:21:20;99561.31;;;5.32;82.04
63552;BME280;49698;48.072;7.800;2023-03-21T03:23:51;99580.22;;;5.31;82.11
63552;BME280;49698;48.072;7.800;2023-03-21T03:26:24;99574.25;;;5.24;82.25
63552;BME280;49698;48.072;7.800;2023-03-21T03:28:57;99572.63;;;5.23;82.40
63552;BME280;49698;48.072;7.800;2023-03-21T03:31:29;99563.59;;;5.24;82.32
63552;BME280;49698;48.072;7.800;2023-03-21T03:34:03;99569.66;;;5.19;82.12
63552;BME280;49698;48.072;7.800;2023-03-21T03:36:39;99567.47;;;5.16;82.13
63552;BME280;49698;48.072;7.800;2023-03-21T03:39:13;99567.69;;;5.14;82.25
63552;BME280;49698;48.072;7.800;2023-03-21T03:41:51;99572.00;;;5.15;82.06
63552;BME280;49698;48.072;7.800;2023-03-21T03:44:40;99578.34;;;5.14;82.08
63552;BME280;49698;48.072;7.800;2023-03-21T03:47:11;99577.78;;;5.12;82.35
63552;BME280;49698;48.072;7.800;2023-03-21T03:50:00;99584.41;;;5.10;82.26
63552;BME280;49698;48.072;7.800;2023-03-21T03:52:34;99579.06;;;5.10;82.21
63552;BME280;49698;48.072;7.800;2023-03-21T03:55:13;99576.19;;;5.11;82.48
63552;BME280;49698;48.072;7.800;2023-03-21T03:57:48;99581.59;;;5.17;82.28
63552;BME280;49698;48.072;7.800;2023-03-21T04:00:16;99574.13;;;5.19;82.16
63552;BME280;49698;48.072;7.800;2023-03-21T04:02:47;99573.59;;;5.17;81.97
63552;BME280;49698;48.072;7.800;2023-03-21T04:05:19;99578.84;;;5.11;82.35
63552;BME280;49698;48.072;7.800;2023-03-21T04:07:48;99584.19;;;5.11;82.36
63552;BME280;49698;48.072;7.800;2023-03-21T04:10:20;99577.00;;;5.12;82.22
63552;BME280;49698;48.072;7.800;2023-03-21T04:12:50;99582.53;;;5.10;82.40
63552;BME280;49698;48.072;7.800;2023-03-21T04:15:30;99573.44;;;5.06;82.49
63552;BME280;49698;48.072;7.800;2023-03-21T04:18:05;99579.56;;;5.07;82.57
63552;BME280;49698;48.072;7.800;2023-03-21T04:20:34;99582.72;;;5.04;82.54
63552;BME280;49698;48.072;7.800;2023-03-21T04:23:04;99575.44;;;4.99;82.57
63552;BME280;49698;48.072;7.800;2023-03-21T04:25:33;99584.88;;;4.90;82.72
63552;BME280;49698;48.072;7.800;2023-03-21T04:28:05;99577.84;;;4.84;83.09
63552;BME280;49698;48.072;7.800;2023-03-21T04:30:56;99584.06;;;4.89;83.28
63552;BME280;49698;48.072;7.800;2023-03-21T04:33:38;99577.47;;;4.92;82.89
63552;BME280;49698;48.072;7.800;2023-03-21T04:36:07;99582.81;;;4.92;82.72
63552;BME280;49698;48.072;7.800;2023-03-21T04:38:56;99576.41;;;4.93;82.92
63552;BME280;49698;48.072;7.800;2023-03-21T04:41:27;99580.94;;;4.93;82.82
63552;BME280;49698;48.072;7.800;2023-03-21T04:43:57;99575.34;;;4.94;82.93
63552;BME280;49698;48.072;7.800;2023-03-21T04:46:25;99573.19;;;4.91;82.75
63552;BME280;49698;48.072;7.800;2023-03-21T04:48:53;99568.66;;;4.91;82.54
63552;BME280;49698;48.072;7.800;2023-03-21T04:51:21;99568.44;;;4.93;82.60
63552;BME280;49698;48.072;7.800;2023-03-21T04:53:49;99575.13;;;4.96;82.62
63552;BME280;49698;48.072;7.800;2023-03-21T04:56:18;99568.44;;;4.93;82.47
63552;BME280;49698;48.072;7.800;2023-03-21T04:58:46;99564.38;;;4.90;82.59
63552;BME280;49698;48.072;7.800;2023-03-21T05:01:15;99571.00;;;4.88;82.38
63552;BME280;49698;48.072;7.800;2023-03-21T05:03:47;99573.34;;;4.84;82.66
63552;BME280;49698;48.072;7.800;2023-03-21T05:06:14;99570.69;;;4.84;82.63
63552;BME280;49698;48.072;7.800;2023-03-21T05:08:43;99570.09;;;4.82;82.67
63552;BME280;49698;48.072;7.800;2023-03-21T05:11:11;99572.44;;;4.79;82.93
63552;BME280;49698;48.072;7.800;2023-03-21T05:13:39;99577.22;;;4.77;82.95
63552;BME280;49698;48.072;7.800;2023-03-21T05:16:08;99570.34;;;4.81;83.09
63552;BME280;49698;48.072;7.800;2023-03-21T05:18:38;99566.97;;;4.85;82.78
63552;BME280;49698;48.072;7.800;2023-03-21T05:21:11;99565.69;;;4.88;82.57
63552;BME280;49698;48.072;7.800;2023-03-21T05:23:46;99564.38;;;4.90;82.51
63552;BME280;49698;48.072;7.800;2023-03-21T05:26:20;99564.72;;;4.94;82.21
63552;BME280;49698;48.072;7.800;2023-03-21T05:28:59;99568.75;;;4.97;82.14
63552;BME280;49698;48.072;7.800;2023-03-21T05:31:27;99570.03;;;4.94;81.96
63552;BME280;49698;48.072;7.800;2023-03-21T05:34:05;99561.97;;;4.89;82.40
63552;BME280;49698;48.072;7.800;2023-03-21T05:36:34;99561.97;;;4.89;82.48
63552;BME280;49698;48.072;7.800;2023-03-21T05:39:06;99557.78;;;4.93;82.39
63552;BME280;49698;48.072;7.800;2023-03-21T05:41:38;99561.00;;;4.95;82.29
63552;BME280;49698;48.072;7.800;2023-03-21T05:44:07;99560.50;;;4.98;82.19
63552;BME280;49698;48.072;7.800;2023-03-21T05:46:36;99565.34;;;5.01;82.19
63552;BME280;49698;48.072;7.800;2023-03-21T05:49:06;99556.31;;;5.02;82.21
63552;BME280;49698;48.072;7.800;2023-03-21T05:51:34;99560.03;;;5.01;82.31
63552;BME280;49698;48.072;7.800;2023-03-21T05:54:02;99558.97;;;5.02;82.31
63552;BME280;49698;48.072;7.800;2023-03-21T05:56:30;99562.75;;;5.06;82.24
63552;BME280;49698;48.072;7.800;2023-03-21T05:59:04;99565.22;;;5.08;82.07
63552;BME280;49698;48.072;7.800;2023-03-21T06:01:38;99565.28;;;5.13;82.36
63552;BME280;49698;48.072;7.800;2023-03-21T06:04:13;99558.16;;;5.19;81.85
63552;BME280;49698;48.072;7.800;2023-03-21T06:06:43;99566.00;;;5.25;81.83
63552;BME280;49698;48.072;7.800;2023-03-21T06:09:12;99570.34;;;5.31;82.05
63552;BME280;49698;48.072;7.800;2023-03-21T06:11:50;99565.91;;;5.37;81.83
63552;BME280;49698;48.072;7.800;2023-03-21T06:14:50;99563.38;;;5.47;81.85
63552;BME280;49698;48.072;7.800;2023-03-21T06:17:29;99563.44;;;5.52;81.94
63552;BME280;49698;48.072;7.800;2023-03-21T06:20:03;99559.25;;;5.56;81.87
63552;BME280;49698;48.072;7.800;2023-03-21T06:22:38;99565.84;;;5.71;81.47
63552;BME280;49698;48.072;7.800;2023-03-21T06:25:07;99553.78;;;5.85;81.13
63552;BME280;49698;48.072;7.800;2023-03-21T06:27:36;99550.75;;;5.98;81.17
63552;BME280;49698;48.072;7.800;2023-03-21T06:30:06;99556.25;;;6.13;81.03
63552;BME280;49698;48.072;7.800;2023-03-21T06:32:43;99556.69;;;6.27;80.59
63552;BME280;49698;48.072;7.800;2023-03-21T06:35:17;99549.66;;;6.43;79.98
63552;BME280;49698;48.072;7.800;2023-03-21T06:37:45;99555.69;;;6.60;79.98
63552;BME280;49698;48.072;7.800;2023-03-21T06:40:15;99553.47;;;6.79;79.55
63552;BME280;49698;48.072;7.800;2023-03-21T06:42:44;99558.66;;;6.96;79.25
63552;BME280;49698;48.072;7.800;2023-03-21T06:45:12;99553.19;;;7.13;78.67
63552;BME280;49698;48.072;7.800;2023-03-21T06:47:41;99549.81;;;7.28;78.20
63552;BME280;49698;48.072;7.800;2023-03-21T06:50:20;99550.75;;;7.44;78.13
63552;BME280;49698;48.072;7.800;2023-03-21T06:52:48;99541.44;;;7.56;77.71
63552;BME280;49698;48.072;7.800;2023-03-21T06:55:17;99546.31;;;7.70;77.41
63552;BME280;49698;48.072;7.800;2023-03-21T06:57:52;99537.28;;;7.81;77.33
63552;BME280;49698;48.072;7.800;2023-03-21T07:00:22;99544.28;;;7.92;77.01
63552;BME280;49698;48.072;7.800;2023-03-21T07:02:50;99540.56;;;8.03;76.83
63552;BME280;49698;48.072;7.800;2023-03-21T07:05:23;99544.34;;;8.13;76.58
63552;BME280;49698;48.072;7.800;2023-03-21T07:07:51;99539.56;;;8.20;76.61
63552;BME280;49698;48.072;7.800;2023-03-21T07:10:20;99539.59;;;8.30;76.26
63552;BME280;49698;48.072;7.800;2023-03-21T07:12:58;99541.25;;;8.41;76.12
63552;BME280;49698;48.072;7.800;2023-03-21T07:15:37;99541.53;;;8.50;75.77
63552;BME280;49698;48.072;7.800;2023-03-21T07:18:08;99538.88;;;8.60;75.56
63552;BME280;49698;48.072;7.800;2023-03-21T07:20:37;99535.16;;;8.71;75.59
63552;BME280;49698;48.072;7.800;2023-03-21T07:23:05;99535.94;;;8.82;75.20
63552;BME280;49698;48.072;7.800;2023-03-21T07:25:33;99531.38;;;8.93;74.67
63552;BME280;49698;48.072;7.800;2023-03-21T07:28:02;99531.13;;;9.04;74.28
63552;BME280;49698;48.072;7.800;2023-03-21T07:30:34;99531.13;;;9.15;74.21
63552;BME280;49698;48.072;7.800;2023-03-21T07:33:03;99530.28;;;9.29;73.88
63552;BME280;49698;48.072;7.800;2023-03-21T07:35:32;99526.22;;;9.47;73.26
63552;BME280;49698;48.072;7.800;2023-03-21T07:38:06;99527.25;;;9.62;72.57
63552;BME280;49698;48.072;7.800;2023-03-21T07:40:34;99528.81;;;9.78;72.51
63552;BME280;49698;48.072;7.800;2023-03-21T07:43:03;99519.63;;;9.94;71.46
63552;BME280;49698;48.072;7.800;2023-03-21T07:45:33;99531.34;;;10.14;71.20
63552;BME280;49698;48.072;7.800;2023-03-21T07:48:05;99528.09;;;10.27;70.54
63552;BME280;49698;48.072;7.800;2023-03-21T07:50:33;99532.84;;;10.40;70.39
63552;BME280;49698;48.072;7.800;2023-03-21T07:53:07;99529.28;;;10.50;69.73
63552;BME280;49698;48.072;7.800;2023-03-21T07:55:35;99530.31;;;10.59;69.38
63552;BME280;49698;48.072;7.800;2023-03-21T07:58:03;99532.31;;;10.77;69.03
63552;BME280;49698;48.072;7.800;2023-03-21T08:00:32;99531.34;;;10.97;68.53
63552;BME280;49698;48.072;7.800;2023-03-21T08:03:00;99538.75;;;11.16;68.15
63552;BME280;49698;48.072;7.800;2023-03-21T08:05:30;99534.34;;;11.25;67.93
63552;BME280;49698;48.072;7.800;2023-03-21T08:08:01;99539.66;;;11.30;67.85
63552;BME280;49698;48.072;7.800;2023-03-21T08:10:31;99538.31;;;11.33;67.60
63552;BME280;49698;48.072;7.800;2023-03-21T08:12:59;99542.56;;;11.39;67.69
63552;BME280;49698;48.072;7.800;2023-03-21T08:15:27;99532.03;;;11.42;67.77
63552;BME280;49698;48.072;7.800;2023-03-21T08:17:57;99535.16;;;11.49;67.63
63552;BME280;49698;48.072;7.800;2023-03-21T08:20:26;99537.25;;;11.58;67.11
63552;BME280;49698;48.072;7.800;2023-03-21T08:22:54;99546.28;;;11.67;67.04
63552;BME280;49698;48.072;7.800;2023-03-21T08:25:22;99546.22;;;11.72;67.02
63552;BME280;49698;48.072;7.800;2023-03-21T08:27:51;99546.47;;;11.75;66.66
63552;BME280;49698;48.072;7.800;2023-03-21T08:30:21;99542.91;;;11.80;66.16
63552;BME280;49698;48.072;7.800;2023-03-21T08:32:49;99543.13;;;11.89;66.35
63552;BME280;49698;48.072;7.800;2023-03-21T08:35:18;99552.38;;;12.02;65.73
63552;BME280;49698;48.072;7.800;2023-03-21T08:37:46;99550.59;;;12.16;65.57
63552;BME280;49698;48.072;7.800;2023-03-21T08:40:16;99551.47;;;12.30;65.19
63552;BME280;49698;48.072;7.800;2023-03-21T08:42:46;99551.84;;;12.42;64.74
63552;BME280;49698;48.072;7.800;2023-03-21T08:45:16;99549.81;;;12.53;64.51
63552;BME280;49698;48.072;7.800;2023-03-21T08:47:45;99542.97;;;12.61;64.05
63552;BME280;49698;48.072;7.800;2023-03-21T08:50:15;99544.78;;;12.65;63.97
63552;BME280;49698;48.072;7.800;2023-03-21T08:52:43;99540.16;;;12.66;63.81
63552;BME280;49698;48.072;7.800;2023-03-21T08:55:13;99542.72;;;12.76;63.85
63552;BME280;49698;48.072;7.800;2023-03-21T08:57:41;99544.16;;;12.87;63.35
63552;BME280;49698;48.072;7.800;2023-03-21T09:00:11;99544.16;;;12.87;63.44
63552;BME280;49698;48.072;7.800;2023-03-21T09:02:43;99540.91;;;12.90;63.47
63552;BME280;49698;48.072;7.800;2023-03-21T09:05:12;99539.63;;;13.02;63.27
63552;BME280;49698;48.072;7.800;2023-03-21T09:07:43;99534.13;;;13.26;62.85
63552;BME280;49698;48.072;7.800;2023-03-21T09:10:13;99535.75;;;13.54;61.95
63552;BME280;49698;48.072;7.800;2023-03-21T09:12:47;99533.78;;;13.87;60.92
63552;BME280;49698;48.072;7.800;2023-03-21T09:15:18;99539.66;;;14.03;59.90
63552;BME280;49698;48.072;7.800;2023-03-21T09:17:49;99528.44;;;14.10;59.58
63552;BME280;49698;48.072;7.800;2023-03-21T09:20:19;99522.13;;;14.01;59.65
63552;BME280;49698;48.072;7.800;2023-03-21T09:22:52;99524.94;;;13.95;59.37
63552;BME280;49698;48.072;7.800;2023-03-21T09:25:22;99521.75;;;13.93;59.91
63552;BME280;49698;48.072;7.800;2023-03-21T09:27:50;99517.31;;;13.98;59.58
63552;BME280;49698;48.072;7.800;2023-03-21T09:30:20;99521.53;;;14.04;59.45
63552;BME280;49698;48.072;7.800;2023-03-21T09:32:52;99523.13;;;14.05;59.09
63552;BME280;49698;48.072;7.800;2023-03-21T09:35:21;99524.56;;;14.02;59.41
63552;BME280;49698;48.072;7.800;2023-03-21T09:37:50;99520.16;;;13.92;59.47
63552;BME280;49698;48.072;7.800;2023-03-21T09:40:20;99520.94;;;13.93;59.97
63552;BME280;49698;48.072;7.800;2023-03-21T09:42:57;99523.13;;;14.05;59.46
63552;BME280;49698;48.072;7.800;2023-03-21T09:45:36;99524.72;;;14.19;59.04
63552;BME280;49698;48.072;7.800;2023-03-21T09:48:15;99516.69;;;14.28;59.22
63552;BME280;49698;48.072;7.800;2023-03-21T09:50:48;99518.50;;;14.33;58.88
63552;BME280;49698;48.072;7.800;2023-03-21T09:53:19;99515.84;;;14.41;58.36
63552;BME280;49698;48.072;7.800;2023-03-21T09:55:49;99515.94;;;14.50;58.04
63552;BME280;49698;48.072;7.800;2023-03-21T09:58:24;99516.81;;;14.59;58.12
63552;BME280;49698;48.072;7.800;2023-03-21T10:00:58;99518.63;;;14.64;57.60
63552;BME280;49698;48.072;7.800;2023-03-21T10:03:31;99521.44;;;14.59;57.55
63552;BME280;49698;48.072;7.800;2023-03-21T10:06:03;99514.66;;;14.70;57.30
63552;BME280;49698;48.072;7.800;2023-03-21T10:08:35;99517.75;;;14.77;57.21
63552;BME280;49698;48.072;7.800;2023-03-21T10:11:09;99515.19;;;14.72;56.96
63552;BME280;49698;48.072;7.800;2023-03-21T10:13:45;99514.56;;;14.75;56.83
63552;BME280;49698;48.072;7.800;2023-03-21T10:16:17;99515.09;;;14.86;56.58
63552;BME280;49698;48.072;7.800;2023-03-21T10:18:48;99507.22;;;14.98;56.30
63552;BME280;49698;48.072;7.800;2023-03-21T10:21:20;99512.38;;;15.08;56.12
63552;BME280;49698;48.072;7.800;2023-03-21T10:24:11;99501.91;;;15.15;55.72
63552;BME280;49698;48.072;7.800;2023-03-21T10:26:43;99500.63;;;15.13;55.66
63552;BME280;49698;48.072;7.800;2023-03-21T10:29:13;99489.97;;;15.16;55.49
63552;BME280;49698;48.072;7.800;2023-03-21T10:31:42;99488.91;;;15.26;55.48
63552;BME280;49698;48.072;7.800;2023-03-21T10:34:15;99489.75;;;15.35;54.98
63552;BME280;49698;48.072;7.800;2023-03-21T10:36:44;99492.63;;;15.39;54.61
63552;BME280;49698;48.072;7.800;2023-03-21T10:39:20;99487.38;;;15.43;54.39
63552;BME280;49698;48.072;7.800;2023-03-21T10:41:51;99478.94;;;15.44;54.26
63552;BME280;49698;48.072;7.800;2023-03-21T10:44:20;99478.84;;;15.58;53.79
63552;BME280;49698;48.072;7.800;2023-03-21T10:46:54;99478.44;;;15.73;53.54
63552;BME280;49698;48.072;7.800;2023-03-21T10:49:24;99471.91;;;15.83;53.09
63552;BME280;49698;48.072;7.800;2023-03-21T10:51:56;99473.53;;;15.93;52.73
63552;BME280;49698;48.072;7.800;2023-03-21T10:54:30;99471.34;;;16.03;52.35
63552;BME280;49698;48.072;7.800;2023-03-21T10:57:02;99472.47;;;16.20;52.13
63552;BME280;49698;48.072;7.800;2023-03-21T10:59:35;99471.34;;;16.29;51.63
63552;BME280;49698;48.072;7.800;2023-03-21T11:02:15;99469.44;;;16.38;51.40
63552;BME280;49698;48.072;7.800;2023-03-21T11:04:46;99464.81;;;16.39;51.47
63552;BME280;49698;48.072;7.800;2023-03-21T11:07:14;99465.44;;;16.45;50.96
63552;BME280;49698;48.072;7.800;2023-03-21T11:09:47;99469.09;;;16.49;50.99
63552;BME280;49698;48.072;7.800;2023-03-21T11:12:28;99458.25;;;16.57;50.88
63552;BME280;49698;48.072;7.800;2023-03-21T11:14:56;99454.88;;;16.69;50.71
63552;BME280;49698;48.072;7.800;2023-03-21T11:17:28;99448.03;;;16.80;50.54
63552;BME280;49698;48.072;7.800;2023-03-21T11:19:59;99452.31;;;16.90;50.33
63552;BME280;49698;48.072;7.800;2023-03-21T11:22:38;99450.50;;;17.03;50.22
63552;BME280;49698;48.072;7.800;2023-03-21T11:25:09;99442.97;;;17.17;50.09
63552;BME280;49698;48.072;7.800;2023-03-21T11:27:46;99442.63;;;17.27;49.70
63552;BME280;49698;48.072;7.800;2023-03-21T11:30:20;99433.97;;;17.25;49.73
63552;BME280;49698;48.072;7.800;2023-03-21T11:32:50;99433.22;;;17.16;49.86
63552;BME280;49698;48.072;7.800;2023-03-21T11:35:24;99432.44;;;17.07;50.06
63552;BME280;49698;48.072;7.800;2023-03-21T11:37:55;99423.84;;;17.05;50.18
63552;BME280;49698;48.072;7.800;2023-03-21T11:40:25;99423.66;;;17.10;50.30
63552;BME280;49698;48.072;7.800;2023-03-21T11:42:55;99407.75;;;17.29;49.91
63552;BME280;49698;48.072;7.800;2023-03-21T11:45:27;99409.41;;;17.51;49.43
63552;BME280;49698;48.072;7.800;2023-03-21T11:48:00;99409.16;;;17.65;49.06
63552;BME280;49698;48.072;7.800;2023-03-21T11:50:33;99402.78;;;17.61;48.83
63552;BME280;49698;48.072;7.800;2023-03-21T11:53:14;99405.50;;;17.61;48.91
63552;BME280;49698;48.072;7.800;2023-03-21T11:55:57;99397.41;;;17.73;48.61
63552;BME280;49698;48.072;7.800;2023-03-21T11:58:35;99399.78;;;17.83;48.11
63552;BME280;49698;48.072;7.800;2023-03-21T12:01:15;99393.75;;;17.99;47.52
63552;BME280;49698;48.072;7.800;2023-03-21T12:03:54;99395.75;;;18.11;47.41
63552;BME280;49698;48.072;7.800;2023-03-21T12:06:33;99385.78;;;18.15;47.35
63552;BME280;49698;48.072;7.800;2023-03-21T12:09:11;99382.84;;;18.20;47.45
63552;BME280;49698;48.072;7.800;2023-03-21T12:12:08;99381.75;;;18.21;47.44
63552;BME280;49698;48.072;7.800;2023-03-21T12:14:46;99380.72;;;18.25;47.41
63552;BME280;49698;48.072;7.800;2023-03-21T12:17:26;99380.31;;;18.36;47.27
63552;BME280;49698;48.072;7.800;2023-03-21T12:25:45;99372.09;;;18.90;46.20
63552;BME280;49698;48.072;7.800;2023-03-21T12:28:25;99371.88;;;18.95;45.82
63552;BME280;49698;48.072;7.800;2023-03-21T12:31:07;99369.81;;;19.04;45.68
63552;BME280;49698;48.072;7.800;2023-03-21T12:33:47;99363.94;;;19.14;45.46
63552;BME280;49698;48.072;7.800;2023-03-21T12:36:29;99356.31;;;19.20;45.79
63552;BME280;49698;48.072;7.800;2023-03-21T12:39:06;99361.63;;;19.16;45.50
63552;BME280;49698;48.072;7.800;2023-03-21T12:41:42;99354.59;;;19.15;45.62
63552;BME280;49698;48.072;7.800;2023-03-21T12:44:13;99349.72;;;19.09;45.67
63552;BME280;49698;48.072;7.800;2023-03-21T12:46:44;99358.13;;;19.03;45.83
63552;BME280;49698;48.072;7.800;2023-03-21T12:49:17;99356.44;;;18.99;45.96
63552;BME280;49698;48.072;7.800;2023-03-21T12:51:49;99350.06;;;18.95;46.09
63552;BME280;49698;48.072;7.800;2023-03-21T12:54:25;99342.69;;;18.95;46.16
63552;BME280;49698;48.072;7.800;2023-03-21T12:57:03;99346.44;;;19.03;45.95
63552;BME280;49698;48.072;7.800;2023-03-21T12:59:36;99349.63;;;19.05;45.95
63552;BME280;49698;48.072;7.800;2023-03-21T13:02:15;99347.13;;;19.00;45.58
63552;BME280;49698;48.072;7.800;2023-03-21T13:04:51;99336.88;;;18.97;45.41
63552;BME280;49698;48.072;7.800;2023-03-21T13:07:28;99339.84;;;18.92;45.34
63552;BME280;49698;48.072;7.800;2023-03-21T13:10:03;99336.44;;;18.83;45.35
63552;BME280;49698;48.072;7.800;2023-03-21T13:12:57;99330.88;;;18.79;45.56
63552;BME280;49698;48.072;7.800;2023-03-21T13:18:32;99323.38;;;18.76;45.82
63552;BME280;49698;48.072;7.800;2023-03-21T13:21:09;99315.75;;;18.69;46.00
63552;BME280;49698;48.072;7.800;2023-03-21T13:23:39;99316.88;;;18.68;45.87
63552;BME280;49698;48.072;7.800;2023-03-21T13:26:12;99319.41;;;18.73;45.84
63552;BME280;49698;48.072;7.800;2023-03-21T13:28:42;99311.59;;;18.84;45.60
63552;BME280;49698;48.072;7.800;2023-03-21T13:31:16;99307.75;;;18.97;44.84
63552;BME280;49698;48.072;7.800;2023-03-21T13:33:46;99302.97;;;19.06;44.76
63552;BME280;49698;48.072;7.800;2023-03-21T13:36:17;99299.44;;;19.18;44.70
63552;BME280;49698;48.072;7.800;2023-03-21T13:38:50;99307.63;;;19.18;44.89
63552;BME280;49698;48.072;7.800;2023-03-21T13:41:26;99308.66;;;19.14;44.90
63552;BME280;49698;48.072;7.800;2023-03-21T13:44:07;99305.44;;;19.12;44.80
63552;BME280;49698;48.072;7.800;2023-03-21T13:46:42;99310.78;;;19.08;44.81
63552;BME280;49698;48.072;7.800;2023-03-21T13:49:29;99311.56;;;19.09;45.01